Time;durP1;ratioP1;P1;durP2;ratioP2;P2;SDS_P1;SDS_P2;PMS_P1;PMS_P2;Temp;Humidity;BMP_temperature;BMP_pressure;BME280_temperature;BME280_humidity;BME280_pressure;Samples;Min_cycle;Max_cycle;Signal;HPM_P1;HPM_P2
2022/01/01 00:01:33;;;;;;;38.05;18.45;;;;;;;0.50;100.00;98594.31;4972784;28;20505;-59
2022/01/01 00:04:18;;;;;;;35.53;18.33;;;;;;;0.48;100.00;98585.63;4986113;28;20044;-64
2022/01/01 00:07:03;;;;;;;37.23;19.03;;;;;;;0.58;100.00;98583.88;4999824;28;20057;-61
2022/01/01 00:09:48;;;;;;;35.72;17.73;;;;;;;0.47;100.00;98577.81;4988383;28;20049;-56
2022/01/01 00:12:33;;;;;;;38.28;19.25;;;;;;;0.35;100.00;98578.66;4974179;28;20065;-64
2022/01/01 00:15:19;;;;;;;38.20;18.45;;;;;;;0.27;100.00;98563.91;4986271;28;20053;-60
2022/01/01 00:18:04;;;;;;;30.15;16.05;;;;;;;0.17;100.00;98557.81;4985241;28;20107;-65
2022/01/01 00:20:49;;;;;;;32.88;16.50;;;;;;;0.15;100.00;98548.25;4985976;28;20065;-58
2022/01/01 00:23:35;;;;;;;32.72;15.95;;;;;;;0.35;100.00;98551.75;4972586;28;20045;-65
2022/01/01 00:26:20;;;;;;;36.40;17.75;;;;;;;0.43;100.00;98550.84;4971587;28;20076;-68
2022/01/01 00:29:05;;;;;;;37.05;19.25;;;;;;;0.34;100.00;98556.06;4987388;28;20423;-64
2022/01/01 00:31:50;;;;;;;39.65;19.42;;;;;;;0.33;100.00;98548.25;4973358;28;20100;-67
2022/01/01 00:34:35;;;;;;;;;;;;;;;0.14;100.00;98552.56;4970582;28;20092;-66
2022/01/01 00:37:20;;;;;;;36.50;17.00;;;;;;;0.09;100.00;98549.09;4984968;28;20040;-66
2022/01/01 00:40:06;;;;;;;31.88;16.65;;;;;;;0.06;100.00;98546.47;4986055;28;20053;-65
2022/01/01 00:42:50;;;;;;;;;;;;;;;0.22;100.00;98540.44;4983966;28;20057;-66
2022/01/01 00:45:35;;;;;;;33.67;15.65;;;;;;;0.41;100.00;98536.09;4985956;28;19920;-64
2022/01/01 00:48:19;;;;;;;30.98;14.70;;;;;;;0.37;100.00;98531.75;4984737;28;20109;-67
2022/01/01 00:51:04;;;;;;;31.77;15.30;;;;;;;0.33;100.00;98523.06;4970750;28;20393;-72
2022/01/01 00:53:50;;;;;;;32.08;16.10;;;;;;;0.51;100.00;98532.63;4955982;28;20288;-66
2022/01/01 00:56:35;;;;;;;30.65;15.27;;;;;;;0.67;100.00;98527.38;4983792;28;20093;-63
2022/01/01 00:59:20;;;;;;;;;;;;;;;0.52;100.00;98529.13;4983854;28;20505;-65
2022/01/01 01:02:06;;;;;;;34.83;16.58;;;;;;;0.54;100.00;98522.16;4974558;28;19975;-66
2022/01/01 01:04:51;;;;;;;32.08;15.15;;;;;;;0.55;100.00;98519.56;4987451;28;20045;-66
2022/01/01 01:07:36;;;;;;;30.35;15.45;;;;;;;0.44;100.00;98512.63;4986000;28;20184;-67
2022/01/01 01:10:21;;;;;;;29.83;15.18;;;;;;;0.49;100.00;98510.88;4973542;28;20106;-63
2022/01/01 01:13:08;;;;;;;31.88;15.35;;;;;;;0.49;100.00;98514.38;4990115;28;20509;-65
2022/01/01 01:15:53;;;;;;;28.05;14.77;;;;;;;0.83;100.00;98504.75;4986376;28;20501;-63
2022/01/01 01:18:37;;;;;;;27.88;14.75;;;;;;;0.98;100.00;98515.19;4990419;28;20073;-64
2022/01/01 01:21:22;;;;;;;;;;;;;;;1.08;100.00;98507.31;4973939;28;20172;-62
2022/01/01 01:24:07;;;;;;;31.52;14.35;;;;;;;0.97;100.00;98501.25;4987667;28;19956;-63
2022/01/01 01:26:53;;;;;;;30.63;14.98;;;;;;;0.82;100.00;98488.22;4985440;28;20154;-62
2022/01/01 01:29:42;;;;;;;28.60;14.68;;;;;;;0.88;100.00;98488.22;4957960;28;20081;-65
2022/01/01 01:32:26;;;;;;;27.08;14.15;;;;;;;0.86;100.00;98489.13;4988535;28;20057;-65
2022/01/01 01:35:12;;;;;;;34.15;15.60;;;;;;;0.77;100.00;98481.28;4973414;28;20041;-64
2022/01/01 01:37:57;;;;;;;26.75;14.82;;;;;;;0.92;100.00;98487.34;4975259;28;20108;-64
2022/01/01 01:40:41;;;;;;;26.98;13.75;;;;;;;0.94;100.00;98469.94;4970970;28;20511;-65
2022/01/01 01:43:26;;;;;;;25.63;13.45;;;;;;;1.09;100.00;98490.78;4970748;28;20108;-62
2022/01/01 01:46:13;;;;;;;30.02;13.75;;;;;;;1.01;100.00;98486.44;4951943;28;20473;-62
2022/01/01 01:48:58;;;;;;;26.45;12.95;;;;;;;1.01;100.00;98482.09;4982540;28;20837;-63
2022/01/01 01:51:43;;;;;;;27.73;13.48;;;;;;;0.97;100.00;98484.72;4985202;28;20057;-65
2022/01/01 01:54:28;;;;;;;23.90;12.80;;;;;;;0.76;100.00;98458.69;4988356;28;20104;-63
2022/01/01 01:57:14;;;;;;;25.90;13.35;;;;;;;0.89;100.00;98476.91;4971854;28;20049;-63
2022/01/01 01:59:59;;;;;;;24.50;12.98;;;;;;;0.97;100.00;98466.44;4989600;28;20096;-64
2022/01/01 02:02:43;;;;;;;24.08;13.20;;;;;;;1.02;100.00;98462.94;4987622;28;20398;-64
2022/01/01 02:05:27;;;;;;;24.85;12.50;;;;;;;0.87;100.00;98469.97;4968155;28;20088;-61
2022/01/01 02:08:15;;;;;;;24.23;12.82;;;;;;;0.92;100.00;98481.25;4987845;28;20505;-62
2022/01/01 02:11:01;;;;;;;24.38;12.65;;;;;;;1.20;100.00;98473.34;4989356;28;20057;-62
2022/01/01 02:20:03;;;;;;;22.30;11.27;;;;;;;1.45;100.00;98468.84;4917642;29;20571;-65
2022/01/01 02:22:50;;;;;;;24.48;12.27;;;;;;;1.57;100.00;98474.00;4918478;29;20547;-63
2022/01/01 02:25:35;;;;;;;22.08;11.45;;;;;;;1.42;100.00;98476.72;4919560;29;20110;-63
2022/01/01 02:28:21;;;;;;;22.27;11.23;;;;;;;1.51;100.00;98481.91;4921321;29;20092;-66
2022/01/01 02:31:05;;;;;;;25.55;14.27;;;;;;;1.52;100.00;98476.66;4916339;29;20098;-64
2022/01/01 02:33:50;;;;;;;23.80;13.05;;;;;;;1.71;100.00;98475.69;4907746;29;20055;-64
2022/01/01 02:36:41;;;;;;;21.83;12.35;;;;;;;1.84;100.00;98477.34;4919626;29;20043;-65
2022/01/01 02:39:25;;;;;;;21.30;11.57;;;;;;;1.96;100.00;98474.66;4910573;29;20130;-63
2022/01/01 02:42:11;;;;;;;18.00;10.57;;;;;;;2.08;100.00;98471.06;4896083;29;20047;-65
2022/01/01 02:44:59;;;;;;;19.92;11.00;;;;;;;1.87;100.00;98473.84;4885550;29;20554;-66
2022/01/01 02:47:44;;;;;;;20.23;10.95;;;;;;;1.98;100.00;98475.50;4901116;29;20125;-64
2022/01/01 02:50:29;;;;;;;17.42;10.40;;;;;;;2.13;100.00;98474.53;4898569;29;20044;-64
2022/01/01 02:53:15;;;;;;;17.23;10.52;;;;;;;1.99;100.00;98465.91;4901473;29;20043;-64
2022/01/01 02:56:00;;;;;;;17.80;10.45;;;;;;;1.91;100.00;98452.91;4958285;28;20096;-66
2022/01/01 02:58:44;;;;;;;18.40;10.68;;;;;;;1.55;100.00;98462.72;4989991;28;20138;-66
2022/01/01 03:01:28;;;;;;;20.03;10.43;;;;;;;1.54;100.00;98464.44;4985018;28;20042;-64
2022/01/01 03:04:14;;;;;;;19.00;9.57;;;;;;;1.72;100.00;98461.75;4972542;28;20359;-66
2022/01/01 03:06:59;;;;;;;18.13;10.85;;;;;;;1.87;100.00;98469.50;4986387;28;20548;-66
2022/01/01 03:09:44;;;;;;;18.58;10.52;;;;;;;1.92;100.00;98461.59;4973391;28;20125;-64
2022/01/01 03:12:29;;;;;;;18.02;10.43;;;;;;;1.82;100.00;98452.97;4987212;28;20296;-64
2022/01/01 03:15:14;;;;;;;17.92;9.90;;;;;;;1.76;100.00;98457.38;4964076;28;20062;-66
2022/01/01 03:18:00;;;;;;;18.88;10.27;;;;;;;1.63;100.00;98456.59;4978186;28;20391;-68
2022/01/01 03:20:44;;;;;;;20.95;9.95;;;;;;;1.76;100.00;98452.13;4966978;28;20050;-66
2022/01/01 03:23:29;;;;;;;18.38;9.65;;;;;;;1.97;100.00;98452.84;4987387;28;20394;-65
2022/01/01 03:26:14;;;;;;;17.23;10.32;;;;;;;1.92;100.00;98452.03;4957538;28;20038;-66
2022/01/01 03:28:58;;;;;;;16.98;9.07;;;;;;;2.11;100.00;98451.03;4987807;28;20142;-64
2022/01/01 03:31:43;;;;;;;16.20;9.75;;;;;;;1.92;100.00;98444.19;4987220;28;20124;-64
2022/01/01 03:34:27;;;;;;;18.77;9.25;;;;;;;1.84;100.00;98446.00;4972059;28;20112;-63
2022/01/01 03:37:12;;;;;;;17.02;9.60;;;;;;;1.78;100.00;98442.56;4973608;28;20105;-64
2022/01/01 03:39:56;;;;;;;17.30;9.27;;;;;;;1.76;100.00;98446.91;4958859;28;20081;-66
2022/01/01 03:42:41;;;;;;;20.80;10.10;;;;;;;1.82;100.00;98442.50;4987157;28;20049;-67
2022/01/01 03:45:25;;;;;;;19.42;10.18;;;;;;;1.81;100.00;98439.91;4970793;28;20300;-64
2022/01/01 03:48:10;;;;;;;21.77;10.87;;;;;;;1.63;100.00;98443.53;4979647;28;20065;-64
2022/01/01 03:50:54;;;;;;;17.25;10.35;;;;;;;1.56;100.00;98439.22;4970565;28;20348;-64
2022/01/01 03:53:38;;;;;;;19.20;11.10;;;;;;;1.67;100.00;98440.03;4988569;28;20049;-65
2022/01/01 03:56:23;;;;;;;23.77;11.52;;;;;;;1.61;100.00;98439.16;4973518;28;20084;-67
2022/01/01 03:59:08;;;;;;;25.30;12.00;;;;;;;1.40;100.00;98441.91;4964873;28;20117;-65
2022/01/01 04:01:55;;;;;;;25.83;11.45;;;;;;;1.17;100.00;98433.31;4971748;28;20446;-65
2022/01/01 04:04:41;;;;;;;26.08;12.35;;;;;;;1.20;100.00;98447.25;4957187;28;20557;-65
2022/01/01 04:07:26;;;;;;;25.67;13.23;;;;;;;1.40;100.00;98445.41;4986635;28;20526;-63
2022/01/01 04:10:11;;;;;;;23.58;12.55;;;;;;;1.63;100.00;98443.53;4985778;28;20502;-65
2022/01/01 04:12:55;;;;;;;31.45;13.50;;;;;;;1.77;100.00;98432.97;4976362;28;20049;-65
2022/01/01 04:15:42;;;;;;;28.52;13.70;;;;;;;1.74;100.00;98433.00;4995360;28;20041;-66
2022/01/01 04:18:37;;;;;;;26.20;12.70;;;;;;;1.63;100.00;98440.91;4970677;28;20943;-66
2022/01/01 04:21:26;;;;;;;26.10;13.48;;;;;;;1.62;100.00;98427.88;4986361;28;20104;-65
2022/01/01 04:24:10;;;;;;;29.83;13.10;;;;;;;1.57;100.00;98440.06;4985805;28;20045;-66
2022/01/01 04:26:54;;;;;;;27.17;12.90;;;;;;;1.65;100.00;98436.53;4956443;28;20553;-66
2022/01/01 04:29:41;;;;;;;22.55;12.10;;;;;;;1.53;100.00;98433.13;4962175;28;20630;-67
2022/01/01 04:32:26;;;;;;;22.98;11.95;;;;;;;1.54;100.00;98430.50;4963307;28;20050;-76
2022/01/01 04:35:11;;;;;;;26.52;12.10;;;;;;;1.58;100.00;98439.22;4985461;28;20064;-63
2022/01/01 04:37:55;;;;;;;30.17;11.15;;;;;;;1.67;100.00;98450.47;4999201;28;20040;-68
2022/01/01 04:40:40;;;;;;;23.70;11.70;;;;;;;1.67;100.00;98446.97;4971194;28;20041;-67
2022/01/01 04:43:25;;;;;;;21.73;11.45;;;;;;;1.60;100.00;98442.66;4971746;28;20880;-67
2022/01/01 04:46:13;;;;;;;22.92;11.25;;;;;;;1.63;100.00;98430.47;4956976;28;20038;-66
2022/01/01 04:48:57;;;;;;;23.05;11.45;;;;;;;1.74;100.00;98433.00;4983553;28;20463;-64
2022/01/01 04:51:42;;;;;;;25.83;11.45;;;;;;;1.74;100.00;98433.00;4968189;28;20053;-65
2022/01/01 04:54:27;;;;;;;21.67;11.38;;;;;;;1.61;100.00;98434.81;4986508;28;20037;-65
2022/01/01 04:57:13;;;;;;;19.90;10.15;;;;;;;1.60;100.00;98437.44;4968250;28;20509;-65
2022/01/01 04:59:58;;;;;;;28.90;13.10;;;;;;;1.62;100.00;98441.78;4985587;28;20121;-64
2022/01/01 05:02:43;;;;;;;27.58;12.40;;;;;;;1.58;100.00;98445.28;4970888;28;20620;-64
2022/01/01 05:05:27;;;;;;;22.83;11.65;;;;;;;1.63;100.00;98445.25;4986937;28;20175;-63
2022/01/01 05:08:11;;;;;;;23.33;11.15;;;;;;;1.67;100.00;98449.59;4986849;28;20085;-64
2022/01/01 05:10:56;;;;;;;28.33;12.77;;;;;;;1.81;100.00;98455.56;4970309;28;20618;-64
2022/01/01 05:13:40;;;;;;;23.80;10.75;;;;;;;1.93;100.00;98458.13;4971477;28;20038;-62
2022/01/01 05:16:25;;;;;;;24.08;10.30;;;;;;;2.01;100.00;98451.97;4984847;28;20053;-64
2022/01/01 05:19:09;;;;;;;21.85;10.73;;;;;;;1.98;100.00;98454.59;4970864;28;20124;-63
2022/01/01 05:21:56;;;;;;;21.30;10.13;;;;;;;1.94;100.00;98465.94;4986331;28;20390;-64
2022/01/01 05:24:41;;;;;;;21.60;10.60;;;;;;;1.73;100.00;98465.22;4967266;28;20470;-63
2022/01/01 05:27:35;;;;;;;20.00;11.23;;;;;;;1.79;100.00;98465.19;4986559;28;20049;-64
2022/01/01 05:30:19;;;;;;;20.73;9.77;;;;;;;1.75;100.00;98469.56;4969543;28;20137;-63
2022/01/01 05:33:04;;;;;;;22.27;10.07;;;;;;;1.82;100.00;98473.00;4985376;28;20049;-67
2022/01/01 05:35:48;;;;;;;20.35;10.38;;;;;;;1.71;100.00;98469.59;4986441;28;21237;-64
2022/01/01 05:38:33;;;;;;;16.63;8.23;;;;;;;1.72;100.00;98477.44;4971144;28;20505;-66
2022/01/01 05:41:17;;;;;;;15.82;8.90;;;;;;;1.78;100.00;98477.38;4958384;28;20038;-64
2022/01/01 05:44:02;;;;;;;16.17;9.50;;;;;;;1.76;100.00;98484.38;4956813;28;20041;-76
2022/01/01 05:46:49;;;;;;;18.50;9.35;;;;;;;1.79;100.00;98484.34;4972161;28;20348;-65
2022/01/01 05:49:34;;;;;;;16.85;8.02;;;;;;;1.93;100.00;98487.72;4959094;28;20060;-62
2022/01/01 05:52:19;;;;;;;16.35;9.18;;;;;;;1.88;100.00;98489.53;4990090;28;20077;-65
2022/01/01 05:55:04;;;;;;;;;;;;;;;1.78;100.00;98489.59;4975614;28;20490;-64
2022/01/01 05:57:48;;;;;;;15.50;8.38;;;;;;;1.81;100.00;98490.44;4989420;28;19971;-64
2022/01/01 06:00:34;;;;;;;18.35;9.68;;;;;;;1.92;100.00;98493.84;4975239;28;20149;-64
2022/01/01 06:03:19;;;;;;;22.20;10.05;;;;;;;1.92;100.00;98491.22;4981182;28;20053;-66
2022/01/01 06:06:04;;;;;;;24.60;10.75;;;;;;;1.99;100.00;98492.94;4973933;28;20046;-64
2022/01/01 06:08:49;;;;;;;17.92;10.20;;;;;;;2.16;100.00;98483.22;4984851;28;20040;-68
2022/01/01 06:11:33;;;;;;;20.15;10.32;;;;;;;2.41;100.00;98483.91;4976106;28;20080;-66
2022/01/01 06:14:20;;;;;;;19.00;9.20;;;;;;;2.57;100.00;98496.81;4988635;28;20128;-63
2022/01/01 06:17:06;;;;;;;17.80;9.05;;;;;;;2.70;100.00;98489.72;4960621;28;20065;-66
2022/01/01 06:19:50;;;;;;;20.17;9.00;;;;;;;2.51;100.00;98491.66;4973755;28;20161;-66
2022/01/01 06:22:35;;;;;;;21.57;9.13;;;;;;;2.45;100.00;98481.22;4986134;28;20093;-66
2022/01/01 06:25:19;;;;;;;23.35;11.05;;;;;;;2.55;100.00;98479.41;4973744;28;20356;-67
2022/01/01 06:28:04;;;;;;;21.98;11.57;;;;;;;2.56;100.00;98473.28;4985871;28;20045;-64
2022/01/01 06:30:49;;;;;;;26.55;11.52;;;;;;;2.32;100.00;98473.50;4973648;28;20049;-65
2022/01/01 06:33:33;;;;;;;22.85;11.55;;;;;;;2.29;100.00;98482.22;4988941;28;20088;-67
2022/01/01 06:36:18;;;;;;;26.05;13.00;;;;;;;2.18;100.00;98478.81;4952627;28;20038;-65
2022/01/01 06:39:04;;;;;;;28.77;13.77;;;;;;;2.12;100.00;98485.84;4969640;28;20037;-64
2022/01/01 06:41:49;;;;;;;26.73;13.07;;;;;;;2.03;100.00;98483.31;4986472;28;20501;-67
2022/01/01 06:44:34;;;;;;;22.15;12.00;;;;;;;2.02;100.00;98479.81;4973745;28;20478;-64
2022/01/01 06:47:18;;;;;;;28.70;13.43;;;;;;;1.94;100.00;98484.22;4974188;28;20181;-66
2022/01/01 06:50:04;;;;;;;26.33;13.15;;;;;;;2.00;100.00;98484.22;4973711;28;20046;-65
2022/01/01 06:52:48;;;;;;;29.83;13.82;;;;;;;1.97;100.00;98489.44;4990169;28;20215;-65
2022/01/01 06:55:33;;;;;;;30.20;13.32;;;;;;;2.11;100.00;98486.75;4984823;28;20033;-64
2022/01/01 06:58:18;;;;;;;38.08;15.20;;;;;;;1.97;100.00;98488.59;4985998;28;20049;-66
2022/01/01 07:01:04;;;;;;;28.48;14.85;;;;;;;1.89;100.00;98490.38;4985617;28;20494;-68
2022/01/01 07:03:48;;;;;;;32.20;14.70;;;;;;;1.91;100.00;98486.00;4973196;28;20100;-65
2022/01/01 07:06:34;;;;;;;30.80;14.67;;;;;;;2.10;100.00;98485.88;4984439;28;20097;-65
2022/01/01 07:09:19;;;;;;;29.23;13.77;;;;;;;2.14;100.00;98482.34;4946636;28;20630;-65
2022/01/01 07:12:04;;;;;;;23.05;11.45;;;;;;;2.25;100.00;98482.28;4972965;28;20881;-66
2022/01/01 07:14:48;;;;;;;26.13;11.50;;;;;;;2.39;100.00;98483.03;4986311;28;20601;-65
2022/01/01 07:17:32;;;;;;;20.55;11.25;;;;;;;2.34;100.00;98485.66;4968231;28;20553;-62
2022/01/01 07:20:17;;;;;;;27.40;12.30;;;;;;;2.17;100.00;98489.31;4982794;28;20076;-66
2022/01/01 07:23:02;;;;;;;24.25;11.48;;;;;;;2.28;100.00;98488.34;4958885;28;20065;-64
2022/01/01 07:25:47;;;;;;;25.73;12.57;;;;;;;2.32;100.00;98482.22;4971163;28;20045;-64
2022/01/01 07:28:32;;;;;;;29.83;14.07;;;;;;;2.26;100.00;98479.63;4973962;28;20462;-64
2022/01/01 07:31:19;;;;;;;27.23;13.98;;;;;;;2.28;100.00;98496.19;4988427;28;20061;-64
2022/01/01 07:34:03;;;;;;;29.95;14.57;;;;;;;2.43;100.00;98493.47;4987209;28;20104;-65
2022/01/01 07:36:48;;;;;;;31.50;15.20;;;;;;;2.36;100.00;98481.31;4985083;28;20096;-65
2022/01/01 07:39:33;;;;;;;27.05;12.77;;;;;;;2.34;100.00;98497.91;4985178;28;20049;-66
2022/01/01 07:42:17;;;;;;;23.15;11.23;;;;;;;2.39;100.00;98496.09;4987987;28;20045;-63
2022/01/01 07:45:03;;;;;;;22.13;10.60;;;;;;;2.37;100.00;98505.72;4985154;28;20056;-64
2022/01/01 07:47:48;;;;;;;18.70;10.40;;;;;;;2.42;100.00;98507.41;4986803;28;20580;-64
2022/01/01 07:50:33;;;;;;;18.00;9.70;;;;;;;2.43;100.00;98505.66;4972576;28;20111;-65
2022/01/01 07:53:17;;;;;;;18.80;9.98;;;;;;;2.50;100.00;98502.13;4973338;28;20092;-67
2022/01/01 07:56:02;;;;;;;20.30;10.88;;;;;;;2.59;100.00;98499.41;4974481;28;20108;-66
2022/01/01 07:58:47;;;;;;;18.48;9.73;;;;;;;2.65;100.00;98502.00;4984772;28;20136;-68
2022/01/01 08:01:31;;;;;;;30.43;13.27;;;;;;;2.79;100.00;98506.22;4984765;28;20041;-65
2022/01/01 08:04:15;;;;;;;24.85;11.95;;;;;;;2.93;100.00;98508.69;4975916;28;20080;-65
2022/01/01 08:07:01;;;;;;;19.57;10.10;;;;;;;3.09;100.00;98503.25;4985296;28;20059;-65
2022/01/01 08:09:46;;;;;;;20.45;9.27;;;;;;;3.05;100.00;98500.72;4983009;28;20589;-65
2022/01/01 08:12:30;;;;;;;19.20;9.45;;;;;;;2.91;100.00;98513.06;4956460;28;20053;-65
2022/01/01 08:15:16;;;;;;;16.90;9.75;;;;;;;2.70;100.00;98511.53;4959802;28;20120;-67
2022/01/01 08:18:02;;;;;;;23.67;10.27;;;;;;;2.79;100.00;98510.56;4965645;28;20088;-68
2022/01/01 08:20:48;;;;;;;24.35;11.18;;;;;;;2.73;100.00;98515.88;4973608;28;20046;-64
2022/01/01 08:23:32;;;;;;;21.52;9.77;;;;;;;2.92;100.00;98518.28;4984923;28;20565;-69
2022/01/01 08:26:17;;;;;;;19.02;9.07;;;;;;;2.92;100.00;98514.78;4972471;28;20057;-67
2022/01/01 08:29:02;;;;;;;19.20;9.55;;;;;;;3.01;100.00;98515.56;4987008;28;20429;-64
2022/01/01 08:31:46;;;;;;;19.92;10.57;;;;;;;3.05;100.00;98519.03;4959013;28;20651;-66
2022/01/01 08:34:30;;;;;;;19.83;10.00;;;;;;;3.18;100.00;98525.88;4979002;28;20096;-65
2022/01/01 08:37:15;;;;;;;16.58;9.95;;;;;;;3.31;100.00;98519.59;4960487;28;20418;-70
2022/01/01 08:40:00;;;;;;;23.17;10.07;;;;;;;3.41;100.00;98526.50;4945991;28;20081;-65
2022/01/01 08:42:44;;;;;;;15.80;8.97;;;;;;;3.43;100.00;98507.25;4985597;28;20057;-67
2022/01/01 08:45:29;;;;;;;17.52;9.57;;;;;;;3.49;100.00;98517.63;4987099;28;20293;-62
2022/01/01 08:48:14;;;;;;;16.52;9.30;;;;;;;3.52;100.00;98519.38;4973644;28;20942;-66
2022/01/01 08:51:10;;;;;;;20.88;10.35;;;;;;;3.27;100.00;98521.41;4970244;28;20142;-65
2022/01/01 08:53:57;;;;;;;19.60;10.48;;;;;;;3.28;100.00;98524.91;4976750;28;20057;-65
2022/01/01 08:56:44;;;;;;;28.88;13.80;;;;;;;3.44;100.00;98518.59;4971066;28;20097;-66
2022/01/01 08:59:29;;;;;;;19.92;11.13;;;;;;;3.44;100.00;98523.84;4974255;28;20064;-67
2022/01/01 09:02:13;;;;;;;18.58;10.40;;;;;;;3.53;100.00;98514.09;4987072;28;20036;-65
2022/01/01 09:05:00;;;;;;;22.08;10.88;;;;;;;3.62;100.00;98518.38;4993387;28;20057;-69
2022/01/01 09:07:45;;;;;;;18.65;9.98;;;;;;;3.57;100.00;98512.31;4987307;28;20077;-65
2022/01/01 09:10:29;;;;;;;20.60;10.48;;;;;;;3.49;100.00;98509.78;4977422;28;20038;-64
2022/01/01 09:13:15;;;;;;;21.30;10.82;;;;;;;3.44;100.00;98514.22;4972906;28;20525;-69
2022/01/01 09:16:01;;;;;;;22.02;10.48;;;;;;;3.29;100.00;98503.91;4958551;28;20046;-67
2022/01/01 09:18:48;;;;;;;17.25;9.65;;;;;;;3.40;100.00;98512.50;4976322;28;20052;-64
2022/01/01 09:21:32;;;;;;;21.55;10.13;;;;;;;3.51;100.00;98512.38;4987190;28;20517;-68
2022/01/01 09:24:18;;;;;;;19.48;9.88;;;;;;;3.70;100.00;98508.66;4989458;28;20041;-68
2022/01/01 09:27:04;;;;;;;21.52;10.15;;;;;;;3.89;100.00;98510.16;4989326;28;20052;-69
2022/01/01 09:29:48;;;;;;;20.60;11.07;;;;;;;3.96;100.00;98514.41;4973608;28;20182;-65
2022/01/01 09:32:33;;;;;;;17.27;9.95;;;;;;;4.02;100.00;98503.84;4977116;28;20048;-64
2022/01/01 09:35:19;;;;;;;19.98;9.57;;;;;;;4.02;100.00;98504.72;4994714;28;20049;-66
2022/01/01 09:38:04;;;;;;;17.48;10.60;;;;;;;4.14;100.00;98501.03;4990953;28;20045;-66
2022/01/01 09:40:49;;;;;;;18.40;9.70;;;;;;;4.22;100.00;98504.41;4990363;28;20501;-64
2022/01/01 09:43:36;;;;;;;22.48;10.65;;;;;;;4.26;100.00;98504.34;4974326;28;20184;-69
2022/01/01 09:46:22;;;;;;;20.10;10.27;;;;;;;4.24;100.00;98500.00;4975640;28;20450;-64
2022/01/01 09:49:06;;;;;;;;;;;;;;;4.19;100.00;98502.69;4989127;28;20169;-68
2022/01/01 09:51:51;;;;;;;18.17;9.68;;;;;;;4.14;100.00;98498.41;4975820;28;19961;-66
2022/01/01 09:54:36;;;;;;;17.80;9.35;;;;;;;4.29;100.00;98492.94;4977031;28;20118;-63
2022/01/01 09:57:22;;;;;;;17.10;9.85;;;;;;;4.23;100.00;98491.25;4964523;28;20184;-67
2022/01/01 10:00:08;;;;;;;16.40;9.57;;;;;;;4.19;100.00;98494.81;4976798;28;20049;-67
2022/01/01 10:02:53;;;;;;;17.48;9.65;;;;;;;4.06;100.00;98490.66;4981350;28;20069;-66
2022/01/01 10:05:57;;;;;;;19.75;9.80;;;;;;;4.12;100.00;98481.84;4990532;28;20548;-66
2022/01/01 10:08:46;;;;;;;18.50;9.68;;;;;;;3.94;100.00;98482.97;4970015;28;20045;-62
2022/01/01 10:11:34;;;;;;;19.10;9.18;;;;;;;4.13;100.00;98480.94;4977235;28;20073;-66
2022/01/01 10:14:19;;;;;;;16.52;8.85;;;;;;;4.01;100.00;98491.63;4971515;28;20041;-67
2022/01/01 10:17:16;;;;;;;13.82;8.40;;;;;;;4.13;100.00;98487.06;4984142;28;20501;-65
2022/01/01 10:20:04;;;;;;;15.43;8.68;;;;;;;4.14;100.00;98482.66;4988392;28;20048;-64
2022/01/01 10:22:52;;;;;;;15.50;8.32;;;;;;;3.93;100.00;98491.75;4989725;28;20045;-69
2022/01/01 10:28:40;;;;;;;15.18;8.40;;;;;;;3.91;100.00;98476.88;4987670;28;20048;-67
2022/01/01 10:31:24;;;;;;;14.98;8.02;;;;;;;3.98;100.00;98475.91;4975303;28;20056;-67
2022/01/01 10:34:21;;;;;;;12.52;6.88;;;;;;;4.16;100.00;98480.91;4988276;28;20045;-66
2022/01/01 10:37:06;;;;;;;12.43;6.22;;;;;;;4.10;100.00;98475.72;4964818;28;20267;-70
2022/01/01 10:39:54;;;;;;;12.65;6.50;;;;;;;4.18;100.00;98477.38;4985014;28;20525;-64
2022/01/01 10:42:50;;;;;;;8.27;4.90;;;;;;;4.04;100.00;98470.59;4973541;28;20844;-67
2022/01/01 10:45:38;;;;;;;7.45;4.57;;;;;;;3.88;100.00;98479.59;4971728;28;20061;-68
2022/01/01 10:48:39;;;;;;;6.53;4.32;;;;;;;3.77;100.00;98481.47;4971881;28;20056;-66
2022/01/01 10:51:36;;;;;;;7.80;3.92;;;;;;;3.88;100.00;98485.66;4974992;28;20135;-66
2022/01/01 10:54:26;;;;;;;;;;;;;;;3.98;100.00;98491.66;4987684;28;20080;-66
2022/01/01 10:57:11;;;;;;;4.55;2.97;;;;;;;3.93;100.00;98496.09;4989851;28;19956;-67
2022/01/01 11:00:15;;;;;;;6.28;3.22;;;;;;;3.88;100.00;98493.53;4989889;28;20064;-66
2022/01/01 11:03:15;;;;;;;4.63;3.00;;;;;;;3.67;100.00;98485.97;4972810;28;20154;-66
2022/01/01 11:06:17;;;;;;;4.22;2.10;;;;;;;3.68;100.00;98487.69;4974648;28;20052;-64
2022/01/01 11:09:03;;;;;;;5.13;2.80;;;;;;;3.57;100.00;98481.72;4968614;28;20096;-67
2022/01/01 11:11:50;;;;;;;2.30;1.58;;;;;;;3.42;100.00;98481.06;4973280;28;20060;-64
2022/01/01 11:14:36;;;;;;;2.28;1.55;;;;;;;3.38;100.00;98479.38;4973007;28;20049;-65
2022/01/01 11:17:26;;;;;;;3.45;1.70;;;;;;;3.35;100.00;98477.66;4974280;28;20065;-65
2022/01/01 11:20:13;;;;;;;3.42;2.00;;;;;;;3.15;100.00;98484.00;4987585;28;20057;-64
2022/01/01 11:23:02;;;;;;;2.50;1.63;;;;;;;3.32;100.00;98482.09;4958873;28;20049;-65
2022/01/01 11:25:49;;;;;;;4.57;2.13;;;;;;;3.58;100.00;98482.59;4972235;28;20053;-63
2022/01/01 11:28:34;;;;;;;5.43;2.42;;;;;;;3.57;100.00;98483.50;4957275;28;20053;-65
2022/01/01 11:31:21;;;;;;;3.30;2.17;;;;;;;3.48;100.00;98478.38;4970190;28;20057;-64
2022/01/01 11:34:11;;;;;;;3.92;2.15;;;;;;;3.39;100.00;98495.06;4981820;28;20164;-62
2022/01/01 11:36:57;;;;;;;4.68;2.00;;;;;;;3.41;100.00;98489.81;4987661;28;20093;-61
2022/01/01 11:39:44;;;;;;;3.80;2.25;;;;;;;3.17;100.00;98495.34;4973245;28;20097;-62
2022/01/01 11:42:44;;;;;;;3.97;2.25;;;;;;;3.37;100.00;98483.72;4971700;28;20568;-71
2022/01/01 11:45:46;;;;;;;3.72;2.22;;;;;;;3.30;100.00;98489.94;4952714;28;20046;-64
2022/01/01 11:48:32;;;;;;;4.28;2.50;;;;;;;3.23;100.00;98490.03;4969769;28;20493;-65
2022/01/01 11:51:25;;;;;;;4.10;2.63;;;;;;;3.29;100.00;98488.19;4959143;28;20385;-65
2022/01/01 11:54:16;;;;;;;3.90;2.17;;;;;;;3.36;100.00;98495.09;4955865;28;20522;-64
2022/01/01 11:57:16;;;;;;;3.22;1.90;;;;;;;3.15;100.00;98484.00;4988253;28;20096;-65
2022/01/01 12:00:12;;;;;;;2.15;1.38;;;;;;;2.95;100.00;98492.09;4970424;28;20066;-64
2022/01/01 12:03:13;;;;;;;2.88;1.88;;;;;;;3.07;100.00;98485.84;4965178;28;20162;-66
2022/01/01 12:06:05;;;;;;;3.72;2.33;;;;;;;3.21;100.00;98484.78;4965913;28;20054;-64
2022/01/01 12:08:51;;;;;;;5.10;2.85;;;;;;;3.42;100.00;98495.03;4952628;28;20041;-64
2022/01/01 12:11:37;;;;;;;4.97;2.97;;;;;;;3.59;100.00;98494.81;4968098;28;20462;-65
2022/01/01 12:14:25;;;;;;;4.85;2.83;;;;;;;3.47;100.00;98492.34;4951780;28;20514;-65
2022/01/01 12:17:16;;;;;;;6.97;3.55;;;;;;;3.62;100.00;98493.03;4949911;28;20092;-64
2022/01/01 12:20:13;;;;;;;5.00;2.92;;;;;;;3.67;100.00;98491.22;4952394;28;20069;-67
2022/01/01 12:23:03;;;;;;;6.35;2.75;;;;;;;3.52;100.00;98490.56;4965066;28;20158;-67
2022/01/01 12:25:51;;;;;;;5.13;2.90;;;;;;;3.44;100.00;98490.63;4952799;28;20467;-66
2022/01/01 12:28:39;;;;;;;6.15;3.08;;;;;;;3.44;100.00;98493.25;4938582;28;20106;-65
2022/01/01 12:31:23;;;;;;;6.15;3.20;;;;;;;3.47;100.00;98498.47;4962901;28;20061;-66
2022/01/01 12:34:12;;;;;;;11.95;7.28;;;;;;;3.24;100.00;98507.50;4958782;28;20101;-65
2022/01/01 12:36:56;;;;;;;6.60;2.97;;;;;;;3.25;100.00;98506.59;4964191;28;20653;-69
2022/01/01 12:40:01;;;;;;;5.70;3.28;;;;;;;3.25;100.00;98506.59;4967901;28;20122;-68
2022/01/01 12:42:47;;;;;;;4.85;3.40;;;;;;;3.28;100.00;98510.03;4950522;28;20046;-68
2022/01/01 12:45:34;;;;;;;7.78;4.30;;;;;;;3.35;100.00;98511.72;4964664;28;20053;-63
2022/01/01 12:48:30;;;;;;;5.95;3.50;;;;;;;3.45;100.00;98515.09;4961415;28;20074;-60
2022/01/01 12:51:24;;;;;;;6.75;4.10;;;;;;;3.58;100.00;98511.44;4963380;28;20089;-55
2022/01/01 12:54:13;;;;;;;8.27;4.10;;;;;;;3.55;100.00;98514.97;4965916;28;20836;-63
2022/01/01 12:57:00;;;;;;;6.43;4.00;;;;;;;3.62;100.00;98519.25;4965465;28;20186;-63
2022/01/01 12:59:48;;;;;;;7.38;4.63;;;;;;;3.69;100.00;98531.34;4980577;28;20481;-63
2022/01/01 13:02:37;;;;;;;7.07;4.65;;;;;;;3.65;100.00;98527.03;4972873;28;20037;-63